Disclaimer

Please do not use the information listed here in-flight or in-navigation, as they are not provided to us by the airports but are provided by volunteers, so they might be outdated.

Search


Regions


Airport information page

Radio informations:
Tower (TWR) - 120.375 MHz
Ground (GND) - 121.9 MHz
YESILKOY APP - 120.5 MHz

Airport informations:
Latitude: 41° 08' 17.70" N
Longitude: 027° 55' 08.74" E
Elevation: 574 feet - 175 meters
Operating hours: 24 hour operations
Operating agency: Military-civil joint use airport
Timezone: UTC+2(+3DT) - Dates notified by NOTAM
Fuel: Jet A1, without icing nhibitor.

Runway information:
05/23 - 9844 x 148 feet< - >3000 x 45 meters

Recent METARs:
LTBU 151150Z 30013KT 7000 -SHRA SCT013 BKN030 07/07 Q1019 RMK RWY22 33013KT
LTBU 151220Z 31013KT 7000 -SHRA SCT011 BKN030 08/07 Q1019 RMK RWY22 34014KT
LTBU 151250Z 31015KT 7000 -SHRA SCT016 BKN030 BKN070 08/06 Q1019 RMK RWY22 34015KT

Airport on the map: